createdAt,value
2022-11-20T00:01:23.043Z,84.64
2022-11-20T00:03:51.698Z,84.37
2022-11-20T00:06:20.647Z,84.51
2022-11-20T00:08:48.203Z,84.55
2022-11-20T00:11:22.877Z,84.29
2022-11-20T00:13:52.036Z,84.42
2022-11-20T00:16:22.278Z,84.82
2022-11-20T00:18:49.837Z,84.44
2022-11-20T00:21:19.729Z,84.34
2022-11-20T00:23:50.940Z,84.42
2022-11-20T00:26:19.929Z,85.28
2022-11-20T00:28:55.653Z,84.97
2022-11-20T00:31:22.802Z,85.20
2022-11-20T00:33:49.949Z,84.47
2022-11-20T00:36:21.857Z,84.73
2022-11-20T00:38:52.928Z,84.64
2022-11-20T00:41:19.846Z,84.64
2022-11-20T00:43:46.584Z,84.72
2022-11-20T00:46:18.901Z,84.50
2022-11-20T00:48:46.519Z,84.07
2022-11-20T00:51:18.394Z,84.64
2022-11-20T00:53:45.998Z,85.05
2022-11-20T00:56:15.691Z,84.67
2022-11-20T00:58:44.629Z,83.99
2022-11-20T01:01:13.006Z,83.60
2022-11-20T01:03:42.954Z,83.44
2022-11-20T01:06:12.706Z,83.84
2022-11-20T01:08:40.361Z,83.53
2022-11-20T01:11:11.013Z,83.75
2022-11-20T01:13:38.488Z,84.50
2022-11-20T01:16:06.257Z,84.29
2022-11-20T01:18:33.108Z,84.03
2022-11-20T01:21:05.790Z,84.36
2022-11-20T01:23:34.509Z,83.80
2022-11-20T01:26:03.638Z,84.51
2022-11-20T01:28:31.073Z,84.48
2022-11-20T01:30:58.149Z,84.24
2022-11-20T01:33:25.041Z,83.54
2022-11-20T01:35:51.872Z,84.04
2022-11-20T01:38:18.844Z,83.89
2022-11-20T01:40:45.542Z,83.98
2022-11-20T01:43:22.755Z,83.71
2022-11-20T01:46:07.851Z,83.98
2022-11-20T01:48:34.589Z,83.46
2022-11-20T01:51:03.331Z,82.36
2022-11-20T01:53:36.284Z,82.55
2022-11-20T01:56:06.730Z,83.32
2022-11-20T01:58:36.818Z,84.36
2022-11-20T02:01:05.350Z,83.96
2022-11-20T02:03:32.638Z,83.83
2022-11-20T02:06:36.209Z,84.28
2022-11-20T02:09:03.346Z,84.32
2022-11-20T02:11:32.316Z,84.70
2022-11-20T02:14:00.311Z,84.61
2022-11-20T02:16:30.235Z,84.07
2022-11-20T02:19:00.343Z,84.16
2022-11-20T02:21:52.799Z,84.33
2022-11-20T02:24:21.152Z,84.13
2022-11-20T02:27:12.533Z,83.68
2022-11-20T02:29:46.149Z,83.67
2022-11-20T02:32:33.154Z,83.80
2022-11-20T02:35:10.208Z,83.38
2022-11-20T02:37:41.758Z,83.53
2022-11-20T02:40:09.129Z,83.94
2022-11-20T02:42:36.738Z,83.57
2022-11-20T02:45:05.177Z,83.48
2022-11-20T02:47:33.333Z,83.72
2022-11-20T02:50:00.156Z,83.06
2022-11-20T02:52:27.184Z,82.47
2022-11-20T02:54:54.203Z,83.38
2022-11-20T02:57:20.889Z,83.53
2022-11-20T02:59:47.651Z,83.25
2022-11-20T03:02:14.443Z,82.38
2022-11-20T03:04:41.165Z,82.03
2022-11-20T03:07:09.029Z,82.47
2022-11-20T03:09:35.892Z,82.80
2022-11-20T03:12:02.711Z,83.42
2022-11-20T03:14:29.520Z,83.81
2022-11-20T03:16:57.100Z,84.05
2022-11-20T03:19:23.936Z,83.91
2022-11-20T03:21:50.863Z,84.19
2022-11-20T03:24:17.701Z,83.53
2022-11-20T03:26:44.480Z,83.34
2022-11-20T03:29:11.223Z,84.57
2022-11-20T03:31:43.335Z,84.73
2022-11-20T03:34:12.042Z,85.49
2022-11-20T03:36:40.395Z,85.09
2022-11-20T03:39:07.371Z,84.64
2022-11-20T03:41:38.399Z,84.17
2022-11-20T03:44:07.341Z,84.13
2022-11-20T03:46:34.514Z,82.98
2022-11-20T03:49:01.391Z,83.68
2022-11-20T03:51:31.196Z,82.81
2022-11-20T03:54:00.354Z,83.51
2022-11-20T03:56:30.253Z,83.34
2022-11-20T03:58:57.326Z,83.52
2022-11-20T04:01:27.108Z,82.82
2022-11-20T04:03:55.734Z,82.73
2022-11-20T04:06:27.827Z,83.30
2022-11-20T04:09:01.846Z,83.11
2022-11-20T04:11:31.150Z,82.96
2022-11-20T04:14:02.493Z,83.96
2022-11-20T04:16:37.079Z,83.80
2022-11-20T04:19:06.270Z,83.13
2022-11-20T04:21:33.683Z,82.11
2022-11-20T04:24:00.476Z,82.66
2022-11-20T04:26:29.076Z,83.27
2022-11-20T04:28:56.202Z,83.45
2022-11-20T04:31:28.917Z,85.39
2022-11-20T04:33:55.989Z,84.83
2022-11-20T04:36:25.048Z,84.47
2022-11-20T04:38:56.703Z,84.29
2022-11-20T04:41:27.839Z,84.10
2022-11-20T04:44:00.865Z,83.73
2022-11-20T04:46:29.192Z,83.28
2022-11-20T04:48:56.334Z,82.99
2022-11-20T04:51:23.315Z,83.04
2022-11-20T04:53:50.240Z,82.05
2022-11-20T04:56:17.313Z,82.30
2022-11-20T04:58:44.044Z,83.59
2022-11-20T05:01:15.629Z,84.89
2022-11-20T05:03:43.719Z,84.60
2022-11-20T05:06:13.189Z,84.50
2022-11-20T05:08:40.713Z,84.51
2022-11-20T05:11:33.593Z,83.85
2022-11-20T05:14:01.025Z,83.16
2022-11-20T05:16:27.976Z,82.41
2022-11-20T05:18:55.624Z,83.16
2022-11-20T05:21:22.782Z,83.50
2022-11-20T05:23:49.729Z,83.27
2022-11-20T05:26:19.285Z,83.61
2022-11-20T05:28:46.666Z,83.92
2022-11-20T05:31:23.430Z,84.12
2022-11-20T05:33:53.454Z,83.91
2022-11-20T05:36:27.468Z,83.48
2022-11-20T05:38:59.760Z,82.90
2022-11-20T05:41:28.211Z,82.85
2022-11-20T05:43:54.898Z,84.56
2022-11-20T05:46:27.877Z,85.55
2022-11-20T05:48:56.313Z,85.30
2022-11-20T05:51:23.022Z,84.81
2022-11-20T05:53:49.853Z,84.85
2022-11-20T05:56:19.355Z,83.40
2022-11-20T05:58:47.019Z,83.74
2022-11-20T06:01:25.361Z,84.47
2022-11-20T06:03:53.769Z,83.42
2022-11-20T06:06:27.053Z,83.74
2022-11-20T06:08:54.014Z,83.99
2022-11-20T06:11:21.083Z,83.12
2022-11-20T06:13:48.179Z,82.76
2022-11-20T06:16:17.235Z,82.82
2022-11-20T06:18:44.205Z,82.40
2022-11-20T06:21:13.820Z,83.18
2022-11-20T06:23:41.674Z,82.87
2022-11-20T06:26:13.933Z,82.57
2022-11-20T06:28:44.076Z,81.90
2022-11-20T06:31:14.920Z,81.92
2022-11-20T06:33:42.855Z,82.81
2022-11-20T06:36:12.830Z,83.08
2022-11-20T06:38:40.446Z,83.09
2022-11-20T06:41:08.752Z,82.98
2022-11-20T06:43:35.501Z,83.11
2022-11-20T06:46:02.302Z,83.44
2022-11-20T06:48:29.744Z,83.69
2022-11-20T06:50:57.416Z,84.29
2022-11-20T06:53:25.079Z,84.28
2022-11-20T06:55:52.967Z,84.98
2022-11-20T06:58:20.050Z,84.83
2022-11-20T07:00:46.855Z,86.15
2022-11-20T07:03:14.322Z,86.81
2022-11-20T07:05:41.673Z,87.04
2022-11-20T07:08:09.018Z,87.27
2022-11-20T07:10:36.144Z,87.18
2022-11-20T07:13:02.984Z,86.87
2022-11-20T07:15:30.073Z,87.05
2022-11-20T07:17:59.415Z,87.49
2022-11-20T07:20:26.208Z,87.14
2022-11-20T07:22:57.237Z,87.94
2022-11-20T07:25:24.231Z,87.92
2022-11-20T07:27:51.074Z,87.22
2022-11-20T07:30:18.670Z,87.28
2022-11-20T07:32:51.658Z,87.46
2022-11-20T07:35:18.760Z,87.86
2022-11-20T07:37:46.710Z,87.69
2022-11-20T07:40:14.492Z,87.53
2022-11-20T07:42:54.890Z,87.81
2022-11-20T07:45:24.279Z,87.32
2022-11-20T07:47:51.737Z,87.33
2022-11-20T07:50:19.840Z,86.92
2022-11-20T07:52:46.622Z,87.21
2022-11-20T07:55:14.087Z,87.10
2022-11-20T07:57:41.132Z,87.23
2022-11-20T08:00:10.222Z,86.85
2022-11-20T08:02:41.096Z,86.80
2022-11-20T08:05:09.693Z,86.48
2022-11-20T08:07:38.777Z,86.37
2022-11-20T08:10:06.433Z,86.39
2022-11-20T08:12:51.888Z,85.74
2022-11-20T08:15:18.874Z,83.56
2022-11-20T08:18:02.028Z,84.76
2022-11-20T08:20:32.925Z,85.06
2022-11-20T08:23:04.484Z,84.53
2022-11-20T08:25:31.880Z,84.28
2022-11-20T08:28:10.318Z,84.37
2022-11-20T08:30:39.041Z,84.86
2022-11-20T08:33:10.486Z,84.73
2022-11-20T08:35:38.888Z,84.46
2022-11-20T08:38:06.787Z,81.14
2022-11-20T08:40:34.263Z,81.50
2022-11-20T08:43:01.904Z,81.09
2022-11-20T08:45:33.671Z,80.71
2022-11-20T08:48:08.524Z,80.52
2022-11-20T08:50:35.295Z,79.45
2022-11-20T08:53:06.047Z,77.34
2022-11-20T08:55:33.381Z,77.22
2022-11-20T08:58:05.202Z,74.16
2022-11-20T09:00:33.462Z,74.64
2022-11-20T09:03:02.072Z,73.12
2022-11-20T09:05:29.131Z,73.38
2022-11-20T09:07:59.698Z,74.24
2022-11-20T09:10:30.068Z,74.11
2022-11-20T09:12:57.337Z,75.50
2022-11-20T09:15:25.791Z,74.98
2022-11-20T09:17:56.981Z,74.79
2022-11-20T09:20:24.195Z,72.37
2022-11-20T09:22:51.060Z,72.05
2022-11-20T09:25:18.168Z,73.50
2022-11-20T09:27:47.042Z,73.95
2022-11-20T09:30:17.054Z,74.52
2022-11-20T09:32:46.915Z,72.72
2022-11-20T09:35:13.837Z,70.90
2022-11-20T09:37:40.627Z,70.48
2022-11-20T09:40:17.935Z,73.56
2022-11-20T09:43:16.204Z,72.43
2022-11-20T09:45:57.867Z,71.68
2022-11-20T09:48:35.360Z,70.92
2022-11-20T09:51:08.119Z,68.24
2022-11-20T09:54:06.423Z,67.14
2022-11-20T09:56:40.156Z,68.92
2022-11-20T09:59:14.385Z,69.78
2022-11-20T10:01:43.779Z,69.56
2022-11-20T10:04:20.826Z,71.51
2022-11-20T10:07:31.534Z,71.83
2022-11-20T10:09:57.381Z,71.37
2022-11-20T10:12:24.056Z,71.10
2022-11-20T10:14:59.825Z,73.41
2022-11-20T10:17:51.042Z,74.76
2022-11-20T10:20:29.586Z,71.38
2022-11-20T10:23:08.429Z,71.05
2022-11-20T10:25:51.613Z,73.82
2022-11-20T10:28:30.196Z,72.98
2022-11-20T10:31:26.336Z,74.46
2022-11-20T10:34:11.731Z,73.47
2022-11-20T10:36:44.837Z,70.93
2022-11-20T10:39:26.903Z,71.78
2022-11-20T10:41:54.790Z,73.23
2022-11-20T10:44:45.725Z,73.29
2022-11-20T10:47:22.197Z,74.22
2022-11-20T10:49:54.149Z,74.20
2022-11-20T10:52:48.501Z,72.14
2022-11-20T10:55:36.473Z,72.79
2022-11-20T10:58:21.394Z,72.29
2022-11-20T11:00:48.275Z,71.13
2022-11-20T11:03:29.769Z,70.81
2022-11-20T11:06:07.657Z,71.11
2022-11-20T11:08:39.351Z,72.34
2022-11-20T11:11:35.108Z,72.81
2022-11-20T11:14:08.663Z,71.69
2022-11-20T11:16:35.950Z,70.72
2022-11-20T11:19:14.549Z,69.86
2022-11-20T11:21:54.947Z,71.34
2022-11-20T11:24:42.314Z,70.17
2022-11-20T11:27:18.772Z,70.54
2022-11-20T11:29:47.099Z,70.39
2022-11-20T11:32:15.552Z,71.37
2022-11-20T11:34:42.571Z,71.37
2022-11-20T11:37:18.526Z,69.35
2022-11-20T11:39:49.392Z,70.04
2022-11-20T11:42:22.079Z,70.62
2022-11-20T11:45:07.820Z,70.65
2022-11-20T11:47:43.845Z,70.65
2022-11-20T11:50:10.517Z,70.62
2022-11-20T11:52:40.116Z,70.05
2022-11-20T11:55:15.473Z,69.84
2022-11-20T11:57:55.631Z,70.22
2022-11-20T12:00:23.969Z,69.42
2022-11-20T12:03:04.926Z,69.97
2022-11-20T12:05:50.670Z,69.79
2022-11-20T12:08:50.201Z,70.13
2022-11-20T12:11:46.481Z,70.54
2022-11-20T12:14:20.812Z,69.83
2022-11-20T12:16:47.859Z,69.83
2022-11-20T12:19:15.384Z,69.77
2022-11-20T12:21:49.355Z,69.48
2022-11-20T12:24:34.831Z,68.29
2022-11-20T12:27:32.493Z,68.62
2022-11-20T12:30:05.956Z,67.76
2022-11-20T12:32:59.931Z,67.92
2022-11-20T12:35:26.653Z,68.79
2022-11-20T12:37:59.253Z,69.20
2022-11-20T12:40:43.734Z,70.26
2022-11-20T12:43:28.905Z,70.09
2022-11-20T12:46:03.206Z,68.54
2022-11-20T12:48:52.806Z,68.47
2022-11-20T12:51:48.776Z,68.28
2022-11-20T12:54:18.191Z,68.70
2022-11-20T12:57:00.799Z,67.16
2022-11-20T12:59:54.814Z,67.34
2022-11-20T13:02:58.981Z,68.07
2022-11-20T13:05:50.182Z,68.83
2022-11-20T13:08:29.445Z,68.81
2022-11-20T13:11:04.343Z,68.13
2022-11-20T13:14:08.422Z,65.35
2022-11-20T13:16:42.651Z,67.36
2022-11-20T13:19:15.833Z,69.30
2022-11-20T13:21:47.326Z,66.36
2022-11-20T13:24:20.477Z,65.89
2022-11-20T13:26:48.020Z,67.57
2022-11-20T13:29:19.690Z,67.16
2022-11-20T13:31:48.398Z,66.56
2022-11-20T13:34:27.140Z,65.54
2022-11-20T13:36:56.692Z,66.12
2022-11-20T13:39:32.045Z,66.80
2022-11-20T13:42:26.259Z,65.52
2022-11-20T13:44:56.545Z,66.08
2022-11-20T13:47:30.065Z,66.47
2022-11-20T13:50:00.256Z,65.93
2022-11-20T13:52:46.851Z,65.32
2022-11-20T13:55:22.606Z,64.86
2022-11-20T13:58:15.621Z,65.43
2022-11-20T14:00:56.372Z,64.13
2022-11-20T14:03:44.071Z,65.52
2022-11-20T14:06:28.676Z,66.46
2022-11-20T14:08:56.526Z,67.12
2022-11-20T14:11:29.064Z,66.03
2022-11-20T14:14:06.316Z,65.62
2022-11-20T14:16:35.808Z,65.90
2022-11-20T14:19:20.971Z,64.73
2022-11-20T14:21:50.976Z,65.31
2022-11-20T14:24:25.779Z,64.57
2022-11-20T14:26:53.601Z,64.45
2022-11-20T14:29:26.377Z,64.98
2022-11-20T14:31:54.930Z,65.47
2022-11-20T14:34:25.678Z,65.39
2022-11-20T14:37:00.064Z,65.68
2022-11-20T14:39:32.820Z,65.48
2022-11-20T14:41:59.676Z,66.40
2022-11-20T14:44:33.964Z,67.49
2022-11-20T14:47:03.656Z,67.60
2022-11-20T14:49:31.937Z,67.52
2022-11-20T14:52:04.175Z,67.52
2022-11-20T14:54:31.700Z,67.50
2022-11-20T14:57:01.785Z,67.68
2022-11-20T14:59:35.438Z,67.53
2022-11-20T15:02:06.362Z,67.67
2022-11-20T15:04:33.018Z,67.38
2022-11-20T15:07:01.053Z,67.54
2022-11-20T15:09:27.992Z,67.76
2022-11-20T15:12:00.280Z,67.96
2022-11-20T15:14:29.929Z,68.03
2022-11-20T15:16:57.347Z,68.54
2022-11-20T15:19:26.176Z,68.45
2022-11-20T15:21:53.307Z,68.74
2022-11-20T15:24:20.814Z,69.30
2022-11-20T15:26:48.813Z,69.03
2022-11-20T15:29:20.295Z,67.88
2022-11-20T15:31:47.090Z,67.76
2022-11-20T15:34:17.500Z,68.08
2022-11-20T15:36:45.324Z,68.00
2022-11-20T15:39:12.654Z,68.55
2022-11-20T15:41:40.383Z,69.04
2022-11-20T15:44:07.452Z,69.23
2022-11-20T15:46:39.534Z,69.58
2022-11-20T15:49:07.254Z,70.30
2022-11-20T15:51:37.105Z,70.91
2022-11-20T15:54:13.299Z,71.27
2022-11-20T15:56:40.207Z,71.53
2022-11-20T15:59:06.991Z,71.74
2022-11-20T16:01:33.845Z,72.48
2022-11-20T16:04:02.327Z,73.00
2022-11-20T16:06:29.152Z,72.97
2022-11-20T16:08:55.989Z,73.28
2022-11-20T16:11:22.791Z,73.56
2022-11-20T16:14:08.941Z,73.96
2022-11-20T16:16:37.856Z,74.33
2022-11-20T16:19:04.854Z,74.07
2022-11-20T16:21:32.676Z,74.56
2022-11-20T16:24:04.981Z,74.53
2022-11-20T16:26:32.961Z,74.70
2022-11-20T16:29:01.281Z,74.16
2022-11-20T16:31:28.123Z,72.88
2022-11-20T16:33:57.729Z,74.04
2022-11-20T16:36:29.549Z,74.77
2022-11-20T16:38:58.563Z,74.54
2022-11-20T16:41:26.833Z,73.22
2022-11-20T16:43:58.837Z,74.20
2022-11-20T16:46:28.541Z,74.41
2022-11-20T16:48:58.025Z,74.95
2022-11-20T16:51:26.340Z,75.07
2022-11-20T16:53:55.152Z,74.92
2022-11-20T16:56:26.912Z,75.58
2022-11-20T16:58:56.275Z,75.39
2022-11-20T17:01:24.741Z,76.01
2022-11-20T17:04:09.810Z,75.84
2022-11-20T17:06:40.748Z,75.83
2022-11-20T17:09:11.020Z,76.07
2022-11-20T17:11:38.459Z,75.89
2022-11-20T17:14:07.541Z,75.96
2022-11-20T17:16:36.428Z,75.88
2022-11-20T17:19:05.239Z,75.68
2022-11-20T17:21:35.953Z,76.03
2022-11-20T17:24:12.606Z,77.03
2022-11-20T17:26:42.073Z,77.42
2022-11-20T17:29:21.572Z,77.58
2022-11-20T17:31:48.977Z,77.56
2022-11-20T17:34:17.012Z,77.41
2022-11-20T17:36:47.447Z,77.17
2022-11-20T17:39:15.711Z,76.99
2022-11-20T17:41:42.672Z,77.63
2022-11-20T17:44:10.708Z,77.07
2022-11-20T17:46:37.756Z,77.69
2022-11-20T17:49:05.226Z,77.67
2022-11-20T17:51:35.252Z,77.98
2022-11-20T17:54:05.769Z,78.87
2022-11-20T17:56:52.380Z,78.27
2022-11-20T17:59:20.125Z,78.10
2022-11-20T18:01:47.740Z,78.28
2022-11-20T18:04:15.121Z,78.21
2022-11-20T18:06:42.539Z,77.52
2022-11-20T18:09:10.171Z,77.58
2022-11-20T18:11:41.739Z,76.94
2022-11-20T18:14:32.654Z,77.24
2022-11-20T18:17:23.493Z,76.63
2022-11-20T18:20:14.166Z,77.09
2022-11-20T18:22:38.238Z,75.58
2022-11-20T18:25:05.405Z,75.51
2022-11-20T18:27:32.665Z,75.71
2022-11-20T18:29:59.575Z,76.10
2022-11-20T18:32:27.472Z,76.26
2022-11-20T18:34:54.587Z,76.97
2022-11-20T18:37:24.801Z,76.43
2022-11-20T18:39:51.995Z,76.30
2022-11-20T18:42:37.726Z,76.51
2022-11-20T18:45:05.587Z,76.50
2022-11-20T18:47:37.567Z,75.84
2022-11-20T18:50:07.967Z,76.53
2022-11-20T18:52:42.079Z,76.90
2022-11-20T18:55:10.072Z,76.89
2022-11-20T18:57:41.098Z,77.29
2022-11-20T19:00:10.131Z,77.79
2022-11-20T19:02:42.103Z,78.19
2022-11-20T19:05:11.640Z,77.88
2022-11-20T19:07:38.802Z,78.32
2022-11-20T19:10:06.889Z,78.38
2022-11-20T19:12:33.932Z,78.39
2022-11-20T19:15:01.122Z,78.15
2022-11-20T19:17:27.888Z,77.71
2022-11-20T19:19:55.294Z,77.22
2022-11-20T19:22:22.478Z,78.63
2022-11-20T19:24:49.582Z,78.29
2022-11-20T19:27:16.702Z,78.72
2022-11-20T19:29:43.814Z,79.30
2022-11-20T19:32:10.722Z,79.54
2022-11-20T19:34:37.881Z,79.73
2022-11-20T19:37:05.491Z,79.36
2022-11-20T19:42:00.092Z,79.17
2022-11-20T19:44:27.075Z,79.75
2022-11-20T19:46:54.009Z,80.16
2022-11-20T19:49:21.708Z,80.45
2022-11-20T19:51:51.105Z,79.74
2022-11-20T19:54:18.477Z,79.83
2022-11-20T19:56:46.696Z,78.74
2022-11-20T19:59:14.238Z,79.13
2022-11-20T20:01:41.180Z,79.29
2022-11-20T20:04:08.221Z,80.23
2022-11-20T20:06:41.812Z,79.71
2022-11-20T20:09:12.502Z,80.11
2022-11-20T20:11:40.615Z,79.75
2022-11-20T20:14:11.407Z,79.76
2022-11-20T20:16:40.429Z,78.99
2022-11-20T20:19:07.715Z,79.63
2022-11-20T20:21:36.587Z,79.96
2022-11-20T20:24:04.563Z,80.41
2022-11-20T20:26:32.682Z,80.45
2022-11-20T20:29:04.545Z,80.83
2022-11-20T20:31:33.969Z,80.25
2022-11-20T20:34:01.756Z,80.37
2022-11-20T20:36:29.039Z,79.87
2022-11-20T20:38:59.721Z,80.67
2022-11-20T20:41:26.780Z,80.39
2022-11-20T20:44:12.809Z,80.71
2022-11-20T20:46:44.156Z,81.08
2022-11-20T20:49:14.361Z,80.64
2022-11-20T20:51:41.411Z,81.87
2022-11-20T20:54:08.615Z,82.11
2022-11-20T20:56:35.938Z,81.80
2022-11-20T20:59:04.161Z,82.13
2022-11-20T21:01:31.713Z,81.84
2022-11-20T21:03:58.819Z,81.28
2022-11-20T21:06:26.897Z,80.61
2022-11-20T21:08:56.529Z,79.28
2022-11-20T21:11:25.085Z,79.72
2022-11-20T21:13:53.142Z,80.33
2022-11-20T21:16:22.766Z,80.40
2022-11-20T21:18:56.689Z,80.16
2022-11-20T21:21:48.217Z,81.19
2022-11-20T21:24:18.620Z,81.21
2022-11-20T21:26:45.846Z,82.23
2022-11-20T21:29:13.032Z,81.53
2022-11-20T21:31:40.245Z,81.13
2022-11-20T21:34:11.140Z,81.21
2022-11-20T21:36:38.509Z,80.88
2022-11-20T21:39:05.694Z,81.20
2022-11-20T21:41:33.527Z,80.85
2022-11-20T21:46:51.358Z,79.66
2022-11-20T21:49:18.370Z,79.95
2022-11-20T21:51:45.696Z,80.72
2022-11-20T21:54:13.045Z,81.57
2022-11-20T21:56:40.114Z,82.38
2022-11-20T21:59:07.011Z,81.51
2022-11-20T22:01:36.682Z,80.91
2022-11-20T22:04:04.509Z,81.98
2022-11-20T22:06:34.749Z,82.48
2022-11-20T22:09:02.971Z,82.32
2022-11-20T22:11:30.636Z,81.73
2022-11-20T22:14:16.561Z,81.18
2022-11-20T22:16:43.969Z,80.81
2022-11-20T22:19:10.850Z,81.79
2022-11-20T22:21:40.200Z,81.80
2022-11-20T22:24:07.237Z,82.04
2022-11-20T22:26:39.880Z,81.20
2022-11-20T22:29:10.950Z,81.37
2022-11-20T22:31:37.877Z,81.37
2022-11-20T22:34:06.107Z,81.98
2022-11-20T22:36:37.893Z,82.12
2022-11-20T22:39:06.129Z,82.93
2022-11-20T22:41:33.849Z,82.60
2022-11-20T22:44:03.342Z,82.46
2022-11-20T22:46:33.754Z,81.85
2022-11-20T22:49:02.721Z,81.59
2022-11-20T22:51:32.874Z,81.50
2022-11-20T22:54:00.348Z,81.39
2022-11-20T22:56:28.589Z,82.31
2022-11-20T22:58:56.249Z,82.82
2022-11-20T23:01:31.588Z,82.93
2022-11-20T23:04:01.643Z,82.46
2022-11-20T23:06:29.741Z,82.10
2022-11-20T23:08:56.988Z,82.02
2022-11-20T23:11:26.785Z,80.60
2022-11-20T23:14:03.252Z,81.52
2022-11-20T23:16:31.547Z,82.20
2022-11-20T23:19:00.809Z,83.34
2022-11-20T23:21:28.027Z,83.55
2022-11-20T23:23:56.800Z,83.23
2022-11-20T23:26:26.625Z,82.02
2022-11-20T23:28:54.798Z,82.16
2022-11-20T23:31:21.943Z,82.81
2022-11-20T23:33:48.864Z,82.86
2022-11-20T23:36:16.308Z,83.47
2022-11-20T23:38:43.527Z,82.95
2022-11-20T23:41:11.465Z,81.63
2022-11-20T23:43:38.252Z,81.99
2022-11-20T23:46:05.857Z,81.47
2022-11-20T23:48:34.914Z,81.56
2022-11-20T23:51:02.522Z,81.54
2022-11-20T23:53:30.858Z,81.19
2022-11-20T23:56:00.861Z,80.95
2022-11-20T23:58:32.610Z,80.85
